Time;durP1;ratioP1;P1;durP2;ratioP2;P2;SDS_P1;SDS_P2;PMS_P1;PMS_P2;Temp;Humidity;BMP_temperature;BMP_pressure;BME280_temperature;BME280_humidity;BME280_pressure;Samples;Min_cycle;Max_cycle;Signal;HPM_P1;HPM_P2
2021/06/28 00:00:20;;;;;;;14.68;9.28;;;;;;;14.93;69.68;100702.42;1768331;81;21088;-73
2021/06/28 00:02:47;;;;;;;15.38;8.68;;;;;;;14.91;69.75;100705.31;1767763;81;21541;-73
2021/06/28 00:05:15;;;;;;;18.05;8.18;;;;;;;14.92;69.83;100704.77;1744872;81;21076;-73
2021/06/28 00:07:42;;;;;;;13.32;7.80;;;;;;;14.91;69.84;100703.13;1734025;82;21552;-72
2021/06/28 00:10:10;;;;;;;16.23;8.90;;;;;;;14.84;69.93;100694.17;1734643;82;21073;-72
2021/06/28 00:12:38;;;;;;;22.07;11.40;;;;;;;14.89;70.05;100707.84;1734755;82;21474;-73
2021/06/28 00:15:07;;;;;;;17.70;8.50;;;;;;;14.94;70.12;100708.13;1734207;82;21131;-73
2021/06/28 00:17:33;;;;;;;14.57;8.33;;;;;;;14.94;70.16;100706.78;1734865;82;21419;-72
2021/06/28 00:19:59;;;;;;;13.53;8.60;;;;;;;14.96;70.24;100711.44;1734006;82;21096;-73
2021/06/28 00:22:25;;;;;;;14.85;8.45;;;;;;;14.96;70.30;100712.78;1734697;82;21493;-73
2021/06/28 00:24:51;;;;;;;14.33;8.10;;;;;;;14.89;70.46;100715.90;1734081;82;21592;-72
2021/06/28 00:27:22;;;;;;;12.60;8.18;;;;;;;14.89;70.46;100715.90;1734749;82;21820;-73
2021/06/28 00:29:45;;;;;;;20.30;8.80;;;;;;;14.84;70.62;100718.34;1733392;82;21041;-73
2021/06/28 00:32:11;;;;;;;14.98;9.15;;;;;;;14.85;70.54;100718.64;1734611;82;21041;-73
2021/06/28 00:34:37;;;;;;;16.60;9.78;;;;;;;14.86;70.56;100721.66;1734585;82;21509;-73
2021/06/28 00:37:04;;;;;;;15.53;7.00;;;;;;;14.84;70.64;100721.86;1734460;81;21012;-73
2021/06/28 00:39:30;;;;;;;15.63;8.38;;;;;;;14.81;70.63;100718.73;1733544;81;21145;-73
2021/06/28 00:41:56;;;;;;;11.75;6.92;;;;;;;14.79;70.72;100722.09;1725804;81;21502;-72
2021/06/28 00:44:22;;;;;;;16.37;7.58;;;;;;;14.62;70.96;100704.55;1726819;83;21549;-72
2021/06/28 00:46:48;;;;;;;11.33;7.00;;;;;;;14.62;70.96;100704.55;1726533;83;21479;-72
2021/06/28 00:49:14;;;;;;;10.58;7.62;;;;;;;14.75;71.02;100726.17;1726635;83;21052;-72
2021/06/28 00:51:40;;;;;;;15.00;8.43;;;;;;;14.78;70.98;100726.62;1734972;81;21133;-73
2021/06/28 00:54:06;;;;;;;16.00;8.50;;;;;;;14.82;71.19;100725.73;1754416;81;21029;-74
2021/06/28 00:56:32;;;;;;;12.23;8.40;;;;;;;14.84;71.28;100729.92;1730168;81;20994;-73
2021/06/28 00:58:58;;;;;;;12.65;7.55;;;;;;;14.81;71.34;100726.78;1726903;83;20994;-73
2021/06/28 01:01:24;;;;;;;11.73;8.15;;;;;;;14.77;71.39;100725.49;1726856;83;21069;-73
2021/06/28 01:03:50;;;;;;;12.53;7.30;;;;;;;14.73;71.46;100721.52;1726624;83;21052;-73
2021/06/28 01:06:16;;;;;;;9.83;7.37;;;;;;;14.72;71.50;100723.87;1727007;83;21553;-73
2021/06/28 01:08:43;;;;;;;17.80;7.83;;;;;;;14.66;71.55;100727.31;1701879;83;21013;-73
2021/06/28 01:11:10;;;;;;;9.73;7.00;;;;;;;14.61;71.60;100725.69;1726853;83;21006;-72
2021/06/28 01:13:39;;;;;;;13.45;7.17;;;;;;;14.56;71.66;100717.39;1702290;83;21491;-73
2021/06/28 01:16:05;;;;;;;11.80;6.75;;;;;;;14.47;71.74;100708.59;1725908;83;21395;-73
2021/06/28 01:18:31;;;;;;;11.03;6.85;;;;;;;14.58;71.82;100727.41;1726671;83;21552;-73
2021/06/28 01:20:59;;;;;;;10.82;7.50;;;;;;;14.56;71.90;100724.09;1701880;83;21061;-73
2021/06/28 01:23:27;;;;;;;10.55;7.85;;;;;;;14.57;72.20;100727.08;1726753;83;21046;-73
2021/06/28 01:25:56;;;;;;;11.68;8.53;;;;;;;14.61;72.20;100732.41;1701964;83;21669;-73
2021/06/28 01:28:22;;;;;;;12.23;7.67;;;;;;;14.52;72.14;100717.44;1702097;83;21297;-73
2021/06/28 01:30:49;;;;;;;14.95;7.67;;;;;;;14.55;72.21;100724.61;1726837;81;21463;-73
2021/06/28 01:33:15;;;;;;;11.80;6.90;;;;;;;14.48;72.28;100724.52;1726495;82;20995;-73
2021/06/28 01:35:41;;;;;;;11.78;7.83;;;;;;;14.46;72.34;100727.08;1726864;83;21097;-73
2021/06/28 01:38:08;;;;;;;8.83;6.65;;;;;;;14.30;72.55;100698.55;1726743;83;21711;-73
2021/06/28 01:40:36;;;;;;;10.93;6.70;;;;;;;14.39;72.25;100717.58;1730301;80;21229;-73
2021/06/28 01:43:03;;;;;;;11.93;7.20;;;;;;;14.39;72.25;100717.58;1734150;82;20993;-73
2021/06/28 01:45:29;;;;;;;11.80;7.20;;;;;;;14.39;72.58;100710.06;1734278;82;21037;-73
2021/06/28 01:47:57;;;;;;;11.00;6.50;;;;;;;14.39;72.60;100709.53;1734636;82;21025;-73
2021/06/28 01:50:24;;;;;;;12.90;7.12;;;;;;;14.40;72.69;100714.39;1734518;82;21512;-73
2021/06/28 01:52:50;;;;;;;12.23;6.42;;;;;;;14.40;72.77;100719.25;1710731;82;21111;-73
2021/06/28 01:55:17;;;;;;;7.42;6.40;;;;;;;14.39;72.83;100713.55;1703437;84;21036;-73
2021/06/28 01:57:49;;;;;;;14.20;7.45;;;;;;;14.36;72.91;100712.59;1703776;84;21581;-72
2021/06/28 02:00:19;;;;;;;12.70;6.72;;;;;;;14.37;72.96;100715.60;1703495;84;21014;-73
2021/06/28 02:03:07;;;;;;;7.97;6.60;;;;;;;14.33;73.01;100707.56;1723192;82;21604;-73
2021/06/28 02:05:38;;;;;;;9.68;7.37;;;;;;;14.29;73.09;100717.00;1735152;82;21217;-72
2021/06/28 02:08:05;;;;;;;13.20;6.90;;;;;;;14.28;73.13;100715.86;1733349;82;21048;-72
2021/06/28 02:10:31;;;;;;;8.23;5.75;;;;;;;14.24;73.15;100712.72;1734685;82;21655;-73
2021/06/28 02:12:57;;;;;;;10.23;5.65;;;;;;;14.23;73.17;100719.09;1734399;82;21040;-73
2021/06/28 02:15:27;;;;;;;6.50;5.40;;;;;;;14.20;73.22;100714.61;1734470;82;21077;-73
2021/06/28 02:17:53;;;;;;;10.80;5.65;;;;;;;14.17;73.30;100715.83;1735055;82;21136;-73
2021/06/28 02:20:19;;;;;;;7.53;4.85;;;;;;;14.18;73.37;100713.44;1734311;82;21084;-72
2021/06/28 02:22:47;;;;;;;9.35;6.25;;;;;;;14.17;73.44;100718.50;1734712;82;21017;-73
2021/06/28 02:25:13;;;;;;;7.60;6.12;;;;;;;14.17;73.53;100713.14;1705763;82;21052;-73
2021/06/28 02:27:40;;;;;;;12.07;6.65;;;;;;;14.16;73.57;100708.78;1734825;82;21526;-73
2021/06/28 02:30:12;;;;;;;8.73;6.40;;;;;;;14.14;73.66;100702.78;1734649;82;21695;-73
2021/06/28 02:32:39;;;;;;;9.18;5.83;;;;;;;14.17;73.72;100702.41;1734515;82;21018;-73
2021/06/28 02:35:07;;;;;;;9.15;6.37;;;;;;;14.17;73.76;100702.91;1734792;82;21535;-73
2021/06/28 02:37:34;;;;;;;9.55;6.10;;;;;;;14.18;73.81;100697.34;1734286;82;21089;-73
2021/06/28 02:40:00;;;;;;;13.22;7.50;;;;;;;14.19;73.81;100692.82;1733861;81;21056;-73
2021/06/28 02:42:26;;;;;;;10.30;6.50;;;;;;;14.18;73.81;100693.33;1726749;83;21071;-73
2021/06/28 02:44:52;;;;;;;8.60;6.33;;;;;;;14.20;73.81;100689.97;1726979;83;21025;-73
2021/06/28 02:47:18;;;;;;;10.65;6.10;;;;;;;14.21;73.87;100692.98;1701897;83;21029;-73
2021/06/28 02:49:44;;;;;;;10.10;6.08;;;;;;;14.20;73.90;100695.33;1726942;83;21529;-73
2021/06/28 02:52:10;;;;;;;11.88;6.53;;;;;;;14.23;73.94;100689.59;1711545;83;21053;-73
2021/06/28 02:54:36;;;;;;;7.03;5.62;;;;;;;14.24;73.98;100692.60;1696118;84;21581;-72
2021/06/28 02:57:03;;;;;;;14.00;6.67;;;;;;;14.25;74.07;100690.22;1696274;84;21042;-72
2021/06/28 02:59:29;;;;;;;17.25;8.15;;;;;;;14.30;74.12;100697.22;1726451;81;22348;-74
2021/06/28 03:01:55;;;;;;;11.85;7.20;;;;;;;14.39;74.16;100692.09;1727229;82;21482;-73
2021/06/28 03:04:22;;;;;;;12.55;7.65;;;;;;;14.44;74.19;100699.08;1728027;83;21435;-73
2021/06/28 03:06:48;;;;;;;13.72;7.87;;;;;;;14.46;74.21;100691.66;1728012;83;21126;-73
2021/06/28 03:09:14;;;;;;;11.75;6.72;;;;;;;14.52;74.23;100701.34;1727534;83;21002;-73
2021/06/28 03:11:40;;;;;;;11.30;7.97;;;;;;;14.53;74.22;100693.61;1727955;83;21062;-73
2021/06/28 03:14:06;;;;;;;19.92;7.40;;;;;;;14.58;74.22;100692.52;1727367;82;21034;-73
2021/06/28 03:16:32;;;;;;;9.73;6.80;;;;;;;14.59;74.21;100693.69;1728078;83;21041;-73
2021/06/28 03:18:59;;;;;;;13.22;7.22;;;;;;;14.63;74.21;100683.41;1727865;83;21116;-73
2021/06/28 03:21:25;;;;;;;12.03;7.05;;;;;;;14.61;74.28;100672.84;1727906;81;21098;-73
2021/06/28 03:23:51;;;;;;;11.90;6.62;;;;;;;14.61;74.28;100672.84;1727976;83;20991;-73
2021/06/28 03:26:17;;;;;;;13.78;8.30;;;;;;;14.80;74.27;100693.72;1727922;83;21049;-73
2021/06/28 03:28:43;;;;;;;12.45;8.58;;;;;;;15.45;74.59;100692.16;1728066;83;21034;-73
2021/06/28 03:31:09;;;;;;;12.07;8.00;;;;;;;15.45;74.59;100692.16;1727837;83;21121;-74
2021/06/28 03:33:36;;;;;;;16.82;9.05;;;;;;;16.21;74.61;100691.80;1727751;83;21522;-73
2021/06/28 03:36:03;;;;;;;12.35;8.33;;;;;;;16.85;74.31;100697.64;1727864;83;20986;-73
2021/06/28 03:38:29;;;;;;;12.00;7.47;;;;;;;17.35;73.94;100693.58;1727745;83;21467;-73
2021/06/28 03:40:55;;;;;;;14.45;7.75;;;;;;;17.69;73.53;100694.45;1730363;81;21515;-74
2021/06/28 03:43:21;;;;;;;10.88;7.70;;;;;;;17.82;73.19;100689.03;1735468;82;21438;-73
2021/06/28 03:45:47;;;;;;;13.35;8.25;;;;;;;17.57;72.79;100692.89;1735903;82;22281;-73
2021/06/28 03:48:13;;;;;;;8.40;6.75;;;;;;;17.44;72.70;100696.91;1735640;82;20977;-74
2021/06/28 03:50:41;;;;;;;11.18;6.92;;;;;;;18.03;72.88;100697.39;1735833;82;21045;-74
2021/06/28 03:53:08;;;;;;;10.25;5.50;;;;;;;18.78;72.49;100704.85;1735289;82;21029;-74
2021/06/28 03:55:34;;;;;;;7.50;5.75;;;;;;;19.23;71.67;100694.27;1735874;82;21898;-74
2021/06/28 03:58:00;;;;;;;12.63;6.05;;;;;;;19.87;71.26;100687.72;1735646;82;21025;-74
2021/06/28 04:00:27;;;;;;;9.15;5.50;;;;;;;20.85;70.60;100691.16;1735446;82;21026;-74
2021/06/28 04:02:54;;;;;;;8.30;5.55;;;;;;;20.97;69.46;100692.02;1735576;82;21301;-74
2021/06/28 04:05:22;;;;;;;8.93;4.87;;;;;;;21.17;68.98;100687.17;1735712;82;20982;-74
2021/06/28 04:10:34;;;;;;;8.75;5.90;;;;;;;23.08;67.27;100687.06;1839121;77;27794;-74
2021/06/28 04:13:00;;;;;;;11.53;6.05;;;;;;;23.92;65.25;100685.22;1827014;78;20951;-74
2021/06/28 04:15:27;;;;;;;7.45;5.50;;;;;;;24.50;64.04;100678.38;1826459;78;21435;-75
2021/06/28 04:17:54;;;;;;;7.20;4.83;;;;;;;25.23;62.98;100682.73;1827134;78;21463;-75
2021/06/28 04:20:22;;;;;;;5.72;5.08;;;;;;;25.87;61.77;100684.08;1827047;78;21010;-75
2021/06/28 04:22:49;;;;;;;9.95;5.25;;;;;;;26.23;60.67;100677.77;1827318;78;21521;-75
2021/06/28 04:25:17;;;;;;;7.15;5.50;;;;;;;26.61;59.62;100678.45;1827156;78;21428;-75
2021/06/28 04:27:44;;;;;;;6.90;5.20;;;;;;;26.92;58.35;100682.94;1826596;78;21982;-75
2021/06/28 04:30:12;;;;;;;7.85;4.65;;;;;;;26.98;57.08;100679.14;1790441;80;21381;-75
2021/06/28 04:32:39;;;;;;;4.85;4.28;;;;;;;26.92;56.37;100680.20;1789241;79;20984;-75
2021/06/28 04:35:11;;;;;;;9.08;5.15;;;;;;;26.54;56.27;100684.17;1789027;80;20988;-75
2021/06/28 04:37:37;;;;;;;6.62;4.22;;;;;;;26.32;56.22;100678.88;1788916;80;21051;-75
2021/06/28 04:40:05;;;;;;;6.28;3.80;;;;;;;26.17;56.03;100681.56;1789009;80;21859;-75
2021/06/28 04:42:31;;;;;;;5.67;3.75;;;;;;;26.07;55.67;100678.72;1801200;78;20971;-75
2021/06/28 04:44:57;;;;;;;5.25;3.85;;;;;;;26.09;55.21;100676.56;1826276;78;20939;-75
2021/06/28 04:47:23;;;;;;;4.20;3.52;;;;;;;26.07;54.66;100677.92;1793684;79;21030;-75
2021/06/28 04:49:49;;;;;;;5.15;3.30;;;;;;;26.13;54.17;100676.86;1793557;79;20990;-75
2021/06/28 04:52:15;;;;;;;8.03;3.72;;;;;;;26.17;53.61;100670.63;1793714;80;21840;-75
2021/06/28 04:54:41;;;;;;;5.35;3.12;;;;;;;26.15;53.13;100674.66;1793612;80;20971;-75
2021/06/28 04:57:07;;;;;;;4.72;3.55;;;;;;;26.24;52.80;100673.12;1793502;80;21426;-75
2021/06/28 04:59:33;;;;;;;5.17;3.47;;;;;;;25.87;52.23;100677.24;1793622;80;21006;-76
2021/06/28 05:01:59;;;;;;;6.30;3.77;;;;;;;25.27;51.92;100677.03;1793594;80;20951;-75
2021/06/28 05:04:26;;;;;;;8.58;3.85;;;;;;;24.60;51.68;100671.67;1793616;80;21485;-75
2021/06/28 05:06:52;;;;;;;7.05;4.15;;;;;;;24.08;51.65;100672.62;1793645;80;21001;-75
2021/06/28 05:09:20;;;;;;;6.10;4.10;;;;;;;23.63;51.73;100678.23;1811123;78;20924;-75
2021/06/28 05:11:46;;;;;;;10.05;4.33;;;;;;;23.36;51.86;100686.22;1823530;78;21022;-75
2021/06/28 05:14:13;;;;;;;12.25;4.95;;;;;;;23.11;51.93;100681.16;1802193;78;21002;-75
2021/06/28 05:16:39;;;;;;;9.65;5.20;;;;;;;23.07;52.19;100681.36;1784732;80;21768;-75
2021/06/28 05:19:06;;;;;;;7.10;4.53;;;;;;;23.04;52.42;100680.49;1814482;78;21605;-75
2021/06/28 05:21:32;;;;;;;7.53;4.00;;;;;;;23.22;52.62;100677.52;1782662;80;21448;-75
2021/06/28 05:23:58;;;;;;;7.08;4.12;;;;;;;23.59;52.76;100683.35;1784263;80;20893;-76
2021/06/28 05:26:24;;;;;;;9.88;3.77;;;;;;;23.95;52.73;100677.91;1778437;79;20970;-75
2021/06/28 05:28:50;;;;;;;3.98;3.58;;;;;;;24.41;52.53;100681.27;1816786;78;21891;-75
2021/06/28 05:31:16;;;;;;;4.25;3.77;;;;;;;24.69;52.25;100672.34;1809856;78;20978;-75
2021/06/28 05:33:42;;;;;;;6.20;4.37;;;;;;;24.91;51.91;100669.58;1792859;78;20954;-75
2021/06/28 05:36:08;;;;;;;4.42;3.70;;;;;;;25.09;51.57;100669.22;1793028;80;21394;-75
2021/06/28 05:38:34;;;;;;;14.78;5.28;;;;;;;25.11;51.08;100669.80;1792981;80;21025;-75
2021/06/28 05:41:00;;;;;;;5.28;4.15;;;;;;;25.21;50.78;100671.25;1798165;78;22572;-75
2021/06/28 05:43:27;;;;;;;5.20;3.62;;;;;;;25.32;50.58;100674.36;1825050;78;20930;-75
2021/06/28 05:45:53;;;;;;;5.47;4.00;;;;;;;25.55;50.21;100675.09;1825319;78;20964;-75
2021/06/28 05:48:19;;;;;;;4.50;4.08;;;;;;;25.62;49.79;100684.72;1825485;78;20904;-76
2021/06/28 05:50:45;;;;;;;5.03;3.95;;;;;;;25.58;49.51;100684.95;1825174;78;20962;-75
2021/06/28 05:53:11;;;;;;;5.80;4.20;;;;;;;25.61;49.35;100685.00;1825401;78;21920;-75
2021/06/28 05:55:37;;;;;;;5.37;3.72;;;;;;;25.64;49.08;100688.57;1803757;78;21001;-75
2021/06/28 05:58:03;;;;;;;5.20;3.92;;;;;;;25.75;49.06;100686.20;1792929;80;21383;-76
2021/06/28 06:00:29;;;;;;;5.55;4.28;;;;;;;25.98;48.83;100688.52;1792999;80;21006;-75
2021/06/28 06:02:56;;;;;;;7.33;4.33;;;;;;;26.16;48.76;100692.19;1792893;80;21017;-75
2021/06/28 06:05:22;;;;;;;7.95;4.67;;;;;;;26.16;48.55;100693.55;1793057;80;21917;-75
2021/06/28 06:07:48;;;;;;;4.72;4.33;;;;;;;26.18;48.35;100694.13;1792666;80;21065;-75
2021/06/28 06:10:15;;;;;;;9.33;5.12;;;;;;;26.20;48.27;100690.60;1794963;79;21045;-75
2021/06/28 06:12:41;;;;;;;5.25;4.75;;;;;;;26.29;48.18;100693.09;1796306;79;20951;-75
2021/06/28 06:15:10;;;;;;;8.08;4.95;;;;;;;26.22;48.09;100693.88;1796665;79;21010;-75
2021/06/28 06:17:36;;;;;;;5.10;4.58;;;;;;;26.05;48.00;100700.05;1805275;78;22011;-75
2021/06/28 06:20:04;;;;;;;7.15;5.65;;;;;;;25.99;48.00;100695.64;1826507;78;21018;-75
2021/06/28 06:22:30;;;;;;;6.65;6.03;;;;;;;26.10;47.99;100701.45;1796652;79;20952;-75
2021/06/28 06:24:56;;;;;;;10.82;6.40;;;;;;;26.28;47.99;100696.91;1796398;79;21007;-75
2021/06/28 06:27:22;;;;;;;7.03;5.45;;;;;;;26.40;47.95;100698.61;1796717;79;21070;-75
2021/06/28 06:29:48;;;;;;;9.73;5.62;;;;;;;26.46;47.95;100703.03;1797056;78;21857;-75
2021/06/28 06:32:14;;;;;;;8.25;5.78;;;;;;;26.52;47.97;100707.43;1796600;79;20966;-75
2021/06/28 06:34:40;;;;;;;5.60;4.95;;;;;;;26.50;47.93;100709.05;1796634;79;20958;-75
2021/06/28 06:37:06;;;;;;;8.40;6.03;;;;;;;26.41;48.01;100715.31;1811684;78;20947;-75
2021/06/28 06:39:33;;;;;;;4.85;4.40;;;;;;;26.44;47.98;100709.30;1810398;78;21546;-75
2021/06/28 06:41:59;;;;;;;6.85;5.37;;;;;;;26.65;47.91;100711.86;1796322;79;21902;-75
2021/06/28 06:44:25;;;;;;;8.93;4.97;;;;;;;27.01;47.91;100711.98;1796540;79;20967;-75
2021/06/28 06:46:51;;;;;;;6.10;5.20;;;;;;;27.30;47.77;100719.41;1796330;79;21045;-75
2021/06/28 06:49:17;;;;;;;8.90;5.17;;;;;;;27.67;47.47;100721.11;1796958;79;21002;-75
2021/06/28 06:51:43;;;;;;;7.22;4.55;;;;;;;27.71;47.18;100723.58;1799062;78;21370;-75
2021/06/28 06:54:10;;;;;;;5.50;5.00;;;;;;;27.70;46.96;100717.27;1829089;78;21797;-75
2021/06/28 06:56:37;;;;;;;6.80;5.33;;;;;;;27.68;46.82;100718.66;1828541;78;20954;-75
2021/06/28 06:59:04;;;;;;;6.15;5.20;;;;;;;28.00;46.66;100719.17;1766232;79;21002;-75
2021/06/28 07:01:32;;;;;;;7.03;4.78;;;;;;;28.31;46.38;100716.37;1810888;78;20947;-75
2021/06/28 07:03:58;;;;;;;5.37;4.35;;;;;;;28.31;46.01;100717.73;1782020;79;20994;-75
2021/06/28 07:06:24;;;;;;;7.75;4.58;;;;;;;28.26;45.70;100720.77;1772968;78;21833;-75
2021/06/28 07:08:50;;;;;;;5.87;5.37;;;;;;;28.14;45.56;100727.12;1794158;79;21479;-75
2021/06/28 07:11:17;;;;;;;5.08;4.58;;;;;;;27.90;45.38;100724.67;1798497;78;21246;-74
2021/06/28 07:13:43;;;;;;;7.87;5.20;;;;;;;27.77;45.32;100725.22;1793804;79;21027;-75
2021/06/28 07:16:10;;;;;;;5.55;4.92;;;;;;;27.80;45.27;100723.28;1814860;78;20954;-74
2021/06/28 07:18:36;;;;;;;7.33;4.90;;;;;;;27.68;45.12;100724.14;1795821;79;22502;-74
2021/06/28 07:21:03;;;;;;;49.42;36.80;;;;;;;27.51;45.05;100726.33;1807214;78;20974;-74
2021/06/28 07:23:30;;;;;;;8.13;6.58;;;;;;;27.43;45.01;100729.58;1789755;79;21505;-74
2021/06/28 07:25:57;;;;;;;7.58;5.80;;;;;;;27.31;45.31;100722.44;1804819;78;21025;-74
2021/06/28 07:28:23;;;;;;;5.80;5.30;;;;;;;27.39;45.40;100727.11;1801395;77;20962;-73
2021/06/28 07:30:49;;;;;;;6.72;4.80;;;;;;;27.32;45.39;100717.78;1766437;80;21974;-72
2021/06/28 07:33:15;;;;;;;7.70;5.15;;;;;;;27.40;45.52;100716.43;1792967;79;21714;-72
2021/06/28 07:35:41;;;;;;;5.62;5.20;;;;;;;27.60;45.54;100717.83;1782485;79;20954;-72
2021/06/28 07:38:07;;;;;;;10.23;6.15;;;;;;;27.70;45.46;100720.55;1808252;78;20966;-72
2021/06/28 07:40:34;;;;;;;6.40;5.12;;;;;;;27.71;45.24;100716.73;1765281;79;21100;-72
2021/06/28 07:43:00;;;;;;;6.12;4.47;;;;;;;27.86;45.30;100719.47;1799169;78;21764;-72
2021/06/28 07:45:26;;;;;;;6.45;4.62;;;;;;;28.21;45.26;100714.48;1775563;80;21483;-72
2021/06/28 07:47:52;;;;;;;9.13;4.75;;;;;;;28.49;45.03;100717.12;1807451;78;20914;-72
2021/06/28 07:50:19;;;;;;;7.33;4.95;;;;;;;28.64;44.80;100719.24;1782166;78;21001;-72
2021/06/28 07:52:46;;;;;;;6.33;4.72;;;;;;;28.73;44.58;100712.66;1808159;78;21072;-72
2021/06/28 07:55:12;;;;;;;5.60;5.10;;;;;;;28.85;44.52;100717.83;1785291;78;21879;-72
2021/06/28 07:57:39;;;;;;;5.20;4.70;;;;;;;28.88;44.24;100719.45;1823360;78;20930;-72
2021/06/28 08:00:09;;;;;;;4.95;4.45;;;;;;;29.10;44.15;100719.84;1822218;78;20975;-72
2021/06/28 08:02:35;;;;;;;7.20;5.20;;;;;;;29.20;43.69;100715.65;1779029;79;21017;-72
2021/06/28 08:05:02;;;;;;;5.97;4.70;;;;;;;29.30;43.48;100718.11;1818012;78;21444;-72
2021/06/28 08:07:29;;;;;;;4.85;4.40;;;;;;;29.42;43.10;100722.13;1781163;79;21837;-72
2021/06/28 08:09:55;;;;;;;6.78;4.42;;;;;;;29.32;42.59;100709.02;1801549;78;20990;-72
2021/06/28 08:12:21;;;;;;;5.58;4.45;;;;;;;29.13;42.26;100720.64;1789360;80;20991;-72
2021/06/28 08:14:47;;;;;;;4.58;4.17;;;;;;;29.02;41.95;100719.09;1802092;79;20987;-72
2021/06/28 08:17:13;;;;;;;5.50;4.62;;;;;;;29.15;41.94;100716.25;1787534;80;20906;-72
2021/06/28 08:19:42;;;;;;;5.30;4.90;;;;;;;29.43;41.90;100715.52;1796819;78;21806;-72
2021/06/28 08:22:08;;;;;;;5.53;4.70;;;;;;;29.36;41.49;100716.95;1774850;80;21641;-72
2021/06/28 08:24:34;;;;;;;5.12;4.62;;;;;;;28.99;41.12;100711.39;1796938;78;20945;-72
2021/06/28 08:27:00;;;;;;;6.03;4.30;;;;;;;28.83;41.06;100709.85;1795883;78;20963;-72
2021/06/28 08:29:26;;;;;;;4.55;4.15;;;;;;;29.00;41.08;100710.30;1831677;77;20991;-72
2021/06/28 08:31:52;;;;;;;5.75;4.85;;;;;;;29.31;41.00;100706.81;1843722;77;22499;-75
2021/06/28 08:34:18;;;;;;;6.53;5.05;;;;;;;29.49;40.71;100714.92;1806453;78;20970;-75
2021/06/28 08:36:45;;;;;;;4.37;3.98;;;;;;;29.45;40.50;100715.25;1807726;78;21030;-75
2021/06/28 08:39:15;;;;;;;5.42;4.62;;;;;;;29.42;40.33;100711.67;1802612;78;21439;-76
2021/06/28 08:41:43;;;;;;;12.30;7.78;;;;;;;29.30;39.87;100711.23;1789299;80;21315;-75
2021/06/28 08:44:09;;;;;;;3.77;3.52;;;;;;;29.33;39.73;100703.80;1798428;78;21921;-75
2021/06/28 08:46:36;;;;;;;4.97;4.30;;;;;;;29.30;39.40;100701.63;1807118;78;21499;-75
2021/06/28 08:49:02;;;;;;;5.42;4.17;;;;;;;29.16;39.24;100699.50;1800325;78;21508;-75
2021/06/28 08:51:29;;;;;;;4.95;4.50;;;;;;;29.11;39.12;100697.32;1808730;78;20999;-75
2021/06/28 08:53:57;;;;;;;6.85;4.45;;;;;;;29.16;39.14;100706.37;1806089;78;21034;-75
2021/06/28 08:56:23;;;;;;;4.55;4.05;;;;;;;28.89;38.78;100707.34;1808853;78;22670;-75
2021/06/28 08:58:49;;;;;;;4.80;4.33;;;;;;;28.70;38.78;100709.11;1810318;78;21028;-75
2021/06/28 09:01:15;;;;;;;7.35;4.40;;;;;;;28.88;38.72;100711.21;1807317;78;20987;-75
2021/06/28 09:03:41;;;;;;;4.05;3.67;;;;;;;29.23;38.49;100708.23;1806807;78;20987;-76
2021/06/28 09:06:10;;;;;;;6.53;3.60;;;;;;;29.42;38.21;100704.80;1804155;78;21018;-75
2021/06/28 09:08:36;;;;;;;7.25;4.30;;;;;;;29.48;37.88;100700.93;1806155;78;23105;-75
2021/06/28 09:11:03;;;;;;;6.83;4.40;;;;;;;29.64;37.81;100710.12;1776185;78;21061;-75
2021/06/28 09:13:38;;;;;;;6.97;4.10;;;;;;;29.53;37.62;100707.74;1816670;78;21037;-75
2021/06/28 09:16:16;;;;;;;4.67;3.83;;;;;;;29.15;37.73;100704.71;1791393;78;21023;-74
2021/06/28 09:19:06;;;;;;;4.30;3.65;;;;;;;28.85;37.88;100703.55;1829850;77;21590;-75
2021/06/28 09:21:41;;;;;;;4.37;3.98;;;;;;;28.70;38.03;100706.36;1785704;79;21818;-75
2021/06/28 09:24:32;;;;;;;4.10;3.70;;;;;;;28.48;38.15;100714.94;1793839;79;21545;-75
2021/06/28 09:27:15;;;;;;;4.17;3.65;;;;;;;28.17;38.17;100711.48;1808999;78;21421;-75
2021/06/28 09:29:49;;;;;;;4.40;4.00;;;;;;;28.02;38.25;100709.27;1823860;78;20978;-75
2021/06/28 09:32:15;;;;;;;4.75;4.22;;;;;;;27.97;38.26;100705.98;1791332;80;21013;-75
2021/06/28 09:34:42;;;;;;;4.30;3.90;;;;;;;28.22;38.21;100700.47;1814785;77;21826;-75
2021/06/28 09:37:24;;;;;;;3.95;3.65;;;;;;;28.48;38.14;100703.12;1802993;78;21006;-75
2021/06/28 09:39:52;;;;;;;5.00;3.90;;;;;;;28.70;38.03;100704.44;1809309;77;21021;-75
2021/06/28 09:42:21;;;;;;;5.20;4.12;;;;;;;28.83;37.83;100702.98;1767418;79;20993;-75
2021/06/28 09:44:56;;;;;;;4.20;3.80;;;;;;;28.90;37.70;100699.38;1773957;79;21025;-75
2021/06/28 09:47:28;;;;;;;3.87;3.58;;;;;;;28.79;37.59;100700.53;1793164;79;21834;-75
2021/06/28 09:50:10;;;;;;;5.05;3.95;;;;;;;28.66;37.56;100705.25;1776385;79;21491;-75
2021/06/28 09:52:51;;;;;;;5.78;4.00;;;;;;;28.52;37.49;100707.78;1811844;78;21607;-75
2021/06/28 09:55:30;;;;;;;4.97;4.28;;;;;;;28.46;37.66;100714.41;1793403;79;21052;-75
2021/06/28 09:58:25;;;;;;;6.17;4.42;;;;;;;28.47;37.66;100716.57;1805721;78;20966;-75
2021/06/28 10:01:00;;;;;;;10.43;3.87;;;;;;;28.29;37.62;100711.15;1796357;78;21759;-75
2021/06/28 10:03:42;;;;;;;5.12;4.70;;;;;;;28.22;37.71;100710.08;1805208;78;20978;-75
2021/06/28 10:08:48;;;;;;;4.37;3.80;;;;;;;27.81;37.78;100715.34;1822378;78;21107;-75
2021/06/28 10:11:20;;;;;;;4.62;4.22;;;;;;;27.62;37.97;100721.13;1818064;78;20845;-75
2021/06/28 10:13:53;;;;;;;5.53;4.42;;;;;;;27.50;38.22;100719.20;1828211;78;22378;-75
2021/06/28 10:16:21;;;;;;;4.67;4.28;;;;;;;27.64;38.37;100719.75;1802375;78;21021;-75
2021/06/28 10:18:47;;;;;;;5.97;4.47;;;;;;;27.89;38.45;100709.31;1778793;79;21009;-74
2021/06/28 10:21:13;;;;;;;7.47;4.87;;;;;;;28.16;38.47;100710.37;1792028;79;20951;-75
2021/06/28 10:23:39;;;;;;;8.48;4.28;;;;;;;28.46;38.46;100710.84;1783252;80;21407;-74
2021/06/28 10:26:06;;;;;;;5.05;4.53;;;;;;;28.59;38.39;100701.98;1801930;78;21870;-74
2021/06/28 10:28:36;;;;;;;7.35;4.47;;;;;;;28.64;38.14;100711.00;1794854;79;21542;-75
2021/06/28 10:31:03;;;;;;;5.90;4.35;;;;;;;28.70;38.05;100699.50;1790478;79;21577;-75
2021/06/28 10:33:29;;;;;;;4.97;4.17;;;;;;;28.83;37.93;100702.16;1801638;78;21448;-75
2021/06/28 10:36:05;;;;;;;5.00;4.50;;;;;;;28.89;37.73;100708.71;1798382;78;20966;-75
2021/06/28 10:38:52;;;;;;;4.40;3.98;;;;;;;28.93;37.48;100711.16;1790648;79;21920;-75
2021/06/28 10:41:42;;;;;;;5.35;3.65;;;;;;;28.69;37.37;100708.83;1783547;79;21102;-75
2021/06/28 10:44:15;;;;;;;5.22;4.12;;;;;;;28.77;37.37;100706.88;1796554;79;20965;-75
2021/06/28 10:46:44;;;;;;;4.92;4.40;;;;;;;28.79;37.37;100708.77;1796128;79;20862;-74
2021/06/28 10:49:10;;;;;;;5.35;4.00;;;;;;;29.11;37.26;100698.14;1772873;79;21490;-75
2021/06/28 10:51:42;;;;;;;5.42;4.58;;;;;;;29.36;37.20;100699.09;1780633;80;22679;-75
2021/06/28 10:54:11;;;;;;;6.37;4.90;;;;;;;29.60;37.01;100685.69;1794410;79;20880;-75
2021/06/28 10:56:47;;;;;;;6.03;4.50;;;;;;;29.63;36.80;100687.03;1798038;78;21416;-75
2021/06/28 10:59:19;;;;;;;6.70;3.65;;;;;;;29.44;36.65;100678.70;1796289;79;21470;-75
2021/06/28 11:01:47;;;;;;;12.45;3.75;;;;;;;29.47;36.71;100677.29;1796494;79;21439;-75
2021/06/28 11:04:15;;;;;;;6.25;3.95;;;;;;;29.32;36.59;100677.41;1824298;77;21753;-75
2021/06/28 11:06:53;;;;;;;4.70;4.30;;;;;;;29.15;36.42;100677.24;1815504;78;21534;-75
2021/06/28 11:09:46;;;;;;;3.77;2.65;;;;;;;29.22;36.46;100684.61;1824165;78;21462;-75
2021/06/28 11:12:29;;;;;;;4.47;3.05;;;;;;;29.35;36.44;100675.45;1754798;81;21038;-75
2021/06/28 11:15:24;;;;;;;5.53;3.40;;;;;;;29.42;36.32;100672.65;1760794;81;21033;-75
2021/06/28 11:17:56;;;;;;;5.50;3.60;;;;;;;29.49;36.04;100673.69;1741512;81;21894;-74
2021/06/28 11:20:38;;;;;;;4.15;3.15;;;;;;;29.37;35.83;100671.88;1742093;81;21288;-74
2021/06/28 11:23:19;;;;;;;6.60;4.50;;;;;;;29.32;35.72;100670.54;1741730;81;21492;-74
2021/06/28 11:25:51;;;;;;;4.90;3.52;;;;;;;29.17;35.54;100670.89;1761117;81;21410;-74
2021/06/28 11:28:27;;;;;;;3.22;2.92;;;;;;;29.08;35.49;100661.63;1761255;81;21538;-74
2021/06/28 11:31:05;;;;;;;4.37;3.98;;;;;;;28.92;35.38;100662.86;1767815;80;21827;-74